Time;durP1;ratioP1;P1;durP2;ratioP2;P2;SDS_P1;SDS_P2;PMS_P1;PMS_P2;Temp;Humidity;BMP_temperature;BMP_pressure;BME280_temperature;BME280_humidity;BME280_pressure;Samples;Min_cycle;Max_cycle;Signal;HPM_P1;HPM_P2
2023/03/30 07:17:13;;;;;;;11.63;3.43;;;10.80;99.90;;;;;;5071637;28;21111;-77
2023/03/30 07:26:02;;;;;;;6.93;2.60;;;10.90;99.90;;;;;;5132637;27;20267;-76
2023/03/30 07:30:49;;;;;;;15.53;3.20;;;10.90;99.90;;;;;;5071641;28;20923;-76
2023/03/30 07:35:10;;;;;;;6.33;3.53;;;11.10;99.90;;;;;;5132849;27;20267;-76
2023/03/30 07:47:37;;;;;;;10.73;3.93;;;11.20;99.90;;;;;;5132801;27;20263;-75
2023/03/30 07:54:09;;;;;;;8.50;2.97;;;11.30;99.90;;;;;;5132450;27;20761;-76
2023/03/30 07:57:25;;;;;;;13.20;3.83;;;11.30;99.90;;;;;;5132869;27;20274;-77
2023/03/30 07:59:51;;;;;;;7.83;3.20;;;11.80;99.90;;;;;;5131949;28;20179;-77
2023/03/30 08:02:17;;;;;;;12.57;3.70;;;12.10;99.90;;;;;;5131759;28;20170;-77
2023/03/30 08:04:43;;;;;;;8.37;2.77;;;12.20;99.90;;;;;;5131848;28;20194;-77
2023/03/30 08:09:06;;;;;;;6.37;2.20;;;12.30;99.90;;;;;;5132763;27;20274;-76
2023/03/30 08:12:30;;;;;;;14.43;2.30;;;12.90;99.90;;;;;;5132439;27;20270;-76
2023/03/30 08:14:56;;;;;;;11.30;2.23;;;12.90;99.90;;;;;;5131957;27;20175;-76
2023/03/30 08:17:22;;;;;;;8.03;2.13;;;13.70;99.90;;;;;;5131999;27;20175;-76
2023/03/30 08:19:47;;;;;;;6.20;2.27;;;14.20;99.90;;;;;;5132305;27;20170;-76
2023/03/30 08:22:13;;;;;;;9.70;2.50;;;14.50;99.90;;;;;;5130559;28;20637;-76
2023/03/30 08:24:39;;;;;;;18.10;3.50;;;14.50;99.90;;;;;;5131668;27;20197;-76
2023/03/30 08:27:05;;;;;;;10.10;2.27;;;14.60;99.90;;;;;;5131992;27;20181;-76
2023/03/30 08:29:30;;;;;;;7.00;2.17;;;14.70;99.90;;;;;;5132001;27;20163;-76
2023/03/30 08:32:34;;;;;;;16.97;2.63;;;14.90;99.90;;;;;;5132187;27;20267;-76
2023/03/30 08:34:59;;;;;;;8.60;2.27;;;15.10;99.90;;;;;;5131901;27;20648;-76
2023/03/30 08:37:25;;;;;;;17.73;3.27;;;15.30;99.90;;;;;;5132157;27;20177;-76
2023/03/30 08:39:51;;;;;;;8.30;2.43;;;15.40;99.90;;;;;;5130548;28;20244;-76
2023/03/30 08:42:52;;;;;;;21.90;6.83;;;15.60;99.90;;;;;;5131874;27;20167;-76
2023/03/30 08:45:17;;;;;;;12.23;2.83;;;15.60;99.90;;;;;;5124136;27;20207;-76
2023/03/30 08:47:47;;;;;;;17.50;4.97;;;15.70;99.90;;;;;;5132076;27;20206;-76
2023/03/30 08:50:29;;;;;;;14.10;3.57;;;15.70;99.90;;;;;;5131632;27;20178;-76
2023/03/30 08:52:55;;;;;;;11.60;4.23;;;15.70;99.90;;;;;;5130125;28;20656;-76
2023/03/30 08:55:29;;;;;;;9.73;3.00;;;15.70;99.90;;;;;;5131909;27;20173;-76
2023/03/30 08:58:20;;;;;;;13.77;3.93;;;15.80;99.90;;;;;;5130300;28;20224;-76
2023/03/30 09:00:55;;;;;;;14.27;2.90;;;15.80;99.90;;;;;;5131045;27;20717;-76
2023/03/30 09:03:52;;;;;;;12.43;3.33;;;16.00;99.90;;;;;;5130044;28;20568;-77
2023/03/30 09:06:43;;;;;;;12.53;2.90;;;16.20;99.90;;;;;;5121625;27;20187;-77
2023/03/30 09:09:14;;;;;;;7.57;2.60;;;16.40;99.90;;;;;;5130083;28;20178;-77
2023/03/30 09:11:40;;;;;;;14.30;2.97;;;16.30;99.90;;;;;;5129769;28;20191;-76
2023/03/30 09:14:15;;;;;;;11.70;4.10;;;16.10;99.90;;;;;;5129806;28;20278;-77
2023/03/30 09:16:52;;;;;;;15.40;3.60;;;16.10;99.90;;;;;;5131453;28;20584;-76
2023/03/30 09:19:25;;;;;;;14.00;3.73;;;16.10;99.90;;;;;;5129788;28;20159;-76
2023/03/30 09:21:52;;;;;;;9.33;2.67;;;16.10;99.90;;;;;;5129616;28;20194;-76
2023/03/30 09:24:25;;;;;;;9.43;3.50;;;16.20;99.90;;;;;;5130887;27;20199;-76
2023/03/30 09:26:53;;;;;;;8.83;2.50;;;16.00;99.90;;;;;;5129739;28;20171;-76
2023/03/30 09:29:39;;;;;;;14.53;2.97;;;15.90;99.90;;;;;;5131014;27;20203;-76
2023/03/30 09:32:29;;;;;;;11.20;3.20;;;15.70;99.90;;;;;;5129271;28;20211;-76
2023/03/30 09:35:01;;;;;;;13.43;2.97;;;15.60;99.90;;;;;;5129628;28;20202;-76
2023/03/30 09:37:28;;;;;;;10.33;3.53;;;15.50;99.90;;;;;;5131077;27;20151;-76
2023/03/30 09:39:54;;;;;;;15.20;4.20;;;15.50;99.90;;;;;;5130772;27;20195;-76
2023/03/30 09:42:20;;;;;;;15.27;5.43;;;15.60;99.90;;;;;;5125965;27;20203;-76
2023/03/30 09:44:59;;;;;;;16.03;5.50;;;15.60;99.90;;;;;;5117087;28;20567;-77
2023/03/30 09:47:36;;;;;;;12.97;2.87;;;15.60;99.90;;;;;;5117240;28;20217;-76
2023/03/30 09:50:26;;;;;;;16.23;5.70;;;15.40;99.90;;;;;;5116856;28;20214;-76
2023/03/30 09:52:57;;;;;;;15.60;5.50;;;15.50;99.90;;;;;;5116640;28;20657;-76
2023/03/30 09:55:30;;;;;;;15.17;3.27;;;15.40;99.90;;;;;;5116723;28;20586;-76
2023/03/30 09:58:16;;;;;;;21.40;7.07;;;15.40;99.90;;;;;;5115498;28;20164;-76
2023/03/30 10:00:42;;;;;;;21.47;10.33;;;15.40;99.90;;;;;;5116661;28;20626;-76
2023/03/30 10:03:19;;;;;;;10.70;4.77;;;15.30;99.90;;;;;;5116339;28;20191;-76
2023/03/30 10:06:18;;;;;;;19.00;8.53;;;15.20;99.90;;;;;;5116470;27;20166;-77
2023/03/30 10:08:53;;;;;;;24.03;12.87;;;15.10;99.90;;;;;;5116472;28;20626;-77
2023/03/30 10:11:27;;;;;;;17.20;6.70;;;15.00;99.90;;;;;;5115152;28;20675;-77
2023/03/30 10:13:53;;;;;;;19.90;7.37;;;14.90;99.90;;;;;;5116256;28;20195;-77
2023/03/30 10:16:28;;;;;;;20.17;10.30;;;14.90;99.90;;;;;;5116221;28;20176;-77
2023/03/30 10:19:15;;;;;;;14.27;4.00;;;14.90;99.90;;;;;;5116526;28;20195;-76
2023/03/30 10:21:45;;;;;;;21.10;7.67;;;14.90;99.90;;;;;;5116230;28;20606;-76
2023/03/30 10:24:13;;;;;;;14.93;3.90;;;14.80;99.90;;;;;;5116680;28;20191;-77
2023/03/30 10:26:43;;;;;;;15.90;4.23;;;14.60;99.90;;;;;;5115486;28;20281;-76
2023/03/30 10:29:14;;;;;;;15.33;5.20;;;14.60;99.90;;;;;;5116642;28;20164;-77
2023/03/30 10:31:44;;;;;;;15.23;6.17;;;14.50;99.90;;;;;;5116912;28;20636;-76
2023/03/30 10:34:17;;;;;;;17.43;5.40;;;14.50;99.90;;;;;;5116443;28;20222;-77
2023/03/30 10:36:46;;;;;;;12.43;4.87;;;14.60;99.90;;;;;;5116130;28;20608;-77
2023/03/30 10:39:28;;;;;;;14.77;3.83;;;14.50;99.90;;;;;;5114810;28;20172;-76
2023/03/30 10:41:56;;;;;;;13.87;3.77;;;14.40;99.90;;;;;;5115479;28;20663;-77
2023/03/30 10:44:28;;;;;;;12.63;5.50;;;14.30;99.90;;;;;;5115796;28;20287;-77
2023/03/30 10:48:54;;;;;;;15.03;3.50;;;14.10;99.90;;;;;;5112051;27;20585;-77
2023/03/30 10:51:33;;;;;;;11.90;2.80;;;14.10;99.90;;;;;;5110368;28;20183;-77
2023/03/30 10:54:04;;;;;;;12.10;3.57;;;14.00;99.90;;;;;;5111186;28;20666;-76
2023/03/30 10:56:53;;;;;;;10.93;3.23;;;13.90;99.90;;;;;;5111364;28;20175;-76
2023/03/30 11:01:19;;;;;;;11.27;2.80;;;13.60;99.90;;;;;;5131192;27;20271;-77
2023/03/30 11:08:46;;;;;;;11.97;3.40;;;13.30;99.90;;;;;;5131454;27;20278;-77
2023/03/30 11:18:17;;;;;;;12.10;2.50;;;12.70;99.90;;;;;;5132768;27;20277;-77
2023/03/30 11:30:16;;;;;;;9.93;3.17;;;12.10;99.90;;;;;;5173974;27;20499;-76
2023/03/30 12:01:40;;;;;;;7.67;3.27;;;10.50;99.90;;;;;;5111898;27;20536;-76
2023/03/30 12:09:45;;;;;;;14.80;5.37;;;10.70;99.90;;;;;;5071596;28;20543;-77
2023/03/30 12:14:32;;;;;;;8.17;3.20;;;10.80;99.90;;;;;;5071345;28;20628;-76
2023/03/30 12:48:57;;;;;;;6.63;2.33;;;10.90;99.90;;;;;;5133184;27;20762;-76
2023/03/30 12:54:27;;;;;;;6.87;2.97;;;10.90;99.90;;;;;;5132608;27;20291;-76
2023/03/30 12:57:36;;;;;;;4.93;2.50;;;11.20;99.90;;;;;;5131894;27;20277;-77
2023/03/30 13:00:22;;;;;;;4.63;2.43;;;11.20;99.90;;;;;;5130669;28;20170;-76
2023/03/30 13:02:51;;;;;;;7.53;3.00;;;11.10;99.90;;;;;;5130724;27;20203;-76
2023/03/30 13:05:25;;;;;;;7.13;2.63;;;11.20;99.90;;;;;;5130557;27;20623;-76
2023/03/30 13:07:54;;;;;;;6.73;2.03;;;11.20;99.90;;;;;;5130552;27;20158;-76
2023/03/30 13:12:40;;;;;;;5.60;2.83;;;11.20;99.90;;;;;;5131690;27;20763;-76
2023/03/30 13:18:03;;;;;;;6.03;2.87;;;11.00;99.90;;;;;;5132645;27;20263;-76
2023/03/30 13:43:46;;;;;;;10.33;4.70;;;10.60;99.90;;;;;;5082268;28;20306;-76
2023/03/30 13:50:17;;;;;;;7.07;3.13;;;10.60;99.90;;;;;;5130966;27;20263;-76
2023/03/30 13:54:06;;;;;;;12.80;4.13;;;10.70;99.90;;;;;;5130612;27;20330;-76
2023/03/30 13:59:08;;;;;;;7.30;2.87;;;10.50;99.90;;;;;;5132255;27;20275;-76
2023/03/30 14:05:25;;;;;;;7.27;2.80;;;10.40;99.90;;;;;;5132186;27;20277;-77
2023/03/30 14:10:05;;;;;;;6.73;3.90;;;10.70;99.90;;;;;;5132744;27;20282;-76
2023/03/30 14:14:37;;;;;;;7.97;3.10;;;10.50;99.90;;;;;;5132266;27;20283;-77
2023/03/30 14:17:40;;;;;;;6.33;3.33;;;10.60;99.90;;;;;;5132333;27;20779;-76
2023/03/30 14:20:08;;;;;;;8.57;3.73;;;10.60;99.90;;;;;;5113864;28;20175;-76
2023/03/30 14:22:39;;;;;;;4.77;3.13;;;10.90;99.90;;;;;;5131680;28;20624;-76
2023/03/30 14:25:46;;;;;;;6.27;3.23;;;10.80;99.90;;;;;;5132244;27;20167;-77
2023/03/30 14:31:17;;;;;;;4.67;2.80;;;10.70;99.90;;;;;;5132778;27;20280;-77
2023/03/30 14:36:02;;;;;;;5.20;2.50;;;10.60;99.90;;;;;;5132492;27;20279;-76
2023/03/30 14:44:22;;;;;;;5.30;2.70;;;10.40;99.90;;;;;;5132137;27;20783;-77
2023/03/30 14:50:43;;;;;;;4.37;2.27;;;10.10;99.90;;;;;;5132283;27;20275;-76
2023/03/30 14:55:56;;;;;;;5.93;2.37;;;10.60;99.90;;;;;;5132645;27;20277;-76
2023/03/30 14:58:24;;;;;;;3.40;2.17;;;10.60;99.90;;;;;;5132012;28;20167;-76
2023/03/30 15:00:54;;;;;;;3.77;2.50;;;10.70;99.90;;;;;;5132081;28;20224;-75
2023/03/30 15:03:22;;;;;;;4.97;2.80;;;10.80;99.90;;;;;;5131593;28;20754;-76
2023/03/30 15:05:48;;;;;;;3.23;2.10;;;10.90;99.90;;;;;;5130699;28;20285;-76
2023/03/30 15:08:24;;;;;;;4.70;3.10;;;11.50;99.90;;;;;;5131712;27;20648;-76
2023/03/30 15:10:55;;;;;;;4.63;2.80;;;11.30;99.90;;;;;;5132049;28;20177;-76
2023/03/30 15:13:35;;;;;;;4.90;2.80;;;10.80;99.90;;;;;;5131596;27;20727;-76
2023/03/30 15:22:33;;;;;;;5.80;3.60;;;10.60;99.90;;;;;;5132378;27;20268;-75
2023/03/30 15:28:34;;;;;;;16.87;10.10;;;10.80;99.90;;;;;;5132625;27;20267;-77
2023/03/30 15:31:44;;;;;;;8.47;7.20;;;11.80;99.90;;;;;;5132674;27;20263;-77
2023/03/30 15:34:15;;;;;;;7.57;5.20;;;12.10;99.90;;;;;;5131833;28;20554;-75
2023/03/30 15:36:41;;;;;;;4.23;3.40;;;12.00;99.90;;;;;;5131962;27;20177;-77
2023/03/30 15:39:22;;;;;;;7.17;4.17;;;12.50;99.90;;;;;;5130749;28;20666;-75
2023/03/30 15:42:03;;;;;;;3.83;2.70;;;12.60;99.90;;;;;;5131616;27;20166;-77
2023/03/30 15:44:33;;;;;;;7.80;3.50;;;12.20;99.90;;;;;;5131985;27;20183;-78
2023/03/30 15:47:00;;;;;;;4.77;2.20;;;11.90;99.90;;;;;;5133318;28;20155;-79
2023/03/30 15:49:40;;;;;;;6.70;4.03;;;11.70;99.90;;;;;;5135617;27;20637;-77
2023/03/30 15:52:29;;;;;;;11.30;5.63;;;11.70;99.90;;;;;;5134126;27;20178;-78
2023/03/30 15:54:55;;;;;;;23.33;13.73;;;11.70;99.90;;;;;;5134685;27;20159;-77
2023/03/30 15:57:29;;;;;;;6.20;3.60;;;11.60;99.90;;;;;;5132548;27;20170;-77
2023/03/30 16:00:00;;;;;;;5.33;3.10;;;11.60;99.90;;;;;;5131106;28;20163;-78
2023/03/30 16:06:23;;;;;;;5.80;3.10;;;11.50;99.90;;;;;;5174144;27;20282;-77
2023/03/30 16:11:52;;;;;;;3.30;2.80;;;11.50;99.90;;;;;;5133108;27;20278;-76
2023/03/30 16:18:48;;;;;;;3.73;1.90;;;11.40;99.90;;;;;;5112634;27;20589;-77
2023/03/30 16:29:31;;;;;;;6.87;3.67;;;11.20;99.90;;;;;;5112198;27;21050;-77
